Otter Rock, Oregon
Current Conditions -  °F | °C
As of 2:15 PM on Sunday 23 Nov 2014 (Local Time) from KONP Reporting Station
Haze Haze  
Wind Chill: 55°   Ceiling: Unl
Heat Index: 55°   Visibility: 4mi
Dew Point: 52°   Wind: 16mph
Humidity: 88%   Direction: 210°SSW
Pressure: 30.33"   Gusts: 21mph
Location:  44.75°N, 124.06°W
Report Text: KONP 232215Z AUTO 21014G18KT 4SM BR SCT014 SCT040 13/11 A3033 RMK AO2
Loading
Personal Weather Stations






























Interactive Weather Map New forecast layout! Learn more

10-Day Weather Forecast

Advertisements
Track Severe Weather on mobile